Time;durP1;ratioP1;P1;durP2;ratioP2;P2;SDS_P1;SDS_P2;PMS_P1;PMS_P2;Temp;Humidity;BMP_temperature;BMP_pressure;BME280_temperature;BME280_humidity;BME280_pressure;Samples;Min_cycle;Max_cycle;Signal;HPM_P1;HPM_P2
2021/11/10 00:06:28;;;;;;;28.30;11.60;;;;;;;8.79;100.00;102470.56;2595543;36;20034;-70
2021/11/10 00:09:23;;;;;;;22.00;10.80;;;;;;;8.75;100.00;102472.56;2613254;36;20447;-70
2021/11/10 00:15:14;;;;;;;28.17;13.73;;;;;;;8.74;100.00;102471.69;2615248;36;20037;-71
2021/11/10 00:24:30;;;;;;;27.70;11.80;;;;;;;8.74;100.00;102460.09;2613139;36;20149;-70
2021/11/10 00:27:21;;;;;;;28.45;11.40;;;;;;;8.70;100.00;102470.16;2630102;36;20046;-70
2021/11/10 00:29:59;;;;;;;23.88;10.82;;;;;;;8.66;100.00;102473.94;2610947;36;20065;-72
2021/11/10 00:32:54;;;;;;;27.70;10.75;;;;;;;8.66;100.00;102462.34;2628041;36;20078;-71
2021/11/10 00:35:29;;;;;;;31.42;11.32;;;;;;;8.65;100.00;102456.09;2596080;36;20050;-72
2021/11/10 00:38:31;;;;;;;29.92;10.73;;;;;;;8.69;100.00;102452.28;2613372;36;21104;-70
2021/11/10 00:41:24;;;;;;;26.60;11.38;;;;;;;8.62;100.00;102444.66;2628549;36;21153;-72
2021/11/10 00:47:03;;;;;;;25.65;11.25;;;;;;;8.63;100.00;102441.00;2608510;36;20060;-71
2021/11/10 00:50:04;;;;;;;26.55;11.35;;;;;;;8.64;100.00;102435.56;2610613;36;20061;-71
2021/11/10 00:55:04;;;;;;;23.58;9.90;;;;;;;8.62;100.00;102440.16;2615037;36;20038;-72
2021/11/10 00:57:43;;;;;;;32.35;11.15;;;;;;;8.57;100.00;102442.25;2596771;36;20041;-72
2021/11/10 01:01:00;;;;;;;19.35;10.88;;;;;;;8.54;100.00;102445.97;2594307;36;20034;-72
2021/11/10 01:09:59;;;;;;;25.35;10.88;;;;;;;8.76;100.00;102426.84;2612741;36;21224;-71
2021/11/10 01:13:03;;;;;;;22.48;9.77;;;;;;;8.70;100.00;102426.31;2599045;31;20585;-71
2021/11/10 01:15:53;;;;;;;21.83;10.30;;;;;;;8.60;100.00;102425.97;2611761;36;20050;-71
2021/11/10 01:18:53;;;;;;;23.00;10.88;;;;;;;8.51;100.00;102427.34;2633164;36;20038;-72
2021/11/10 01:21:44;;;;;;;16.33;9.68;;;;;;;8.48;100.00;102424.84;2593813;36;20043;-72
2021/11/10 01:24:36;;;;;;;23.08;10.48;;;;;;;8.50;100.00;102424.75;2618874;36;20060;-71
2021/11/10 01:27:31;;;;;;;25.70;10.25;;;;;;;8.53;100.00;102421.88;2599446;36;20631;-72
2021/11/10 01:35:53;;;;;;;25.35;10.57;;;;;;;8.49;100.00;102412.28;2599806;36;20148;-72
2021/11/10 01:38:38;;;;;;;23.10;10.98;;;;;;;8.46;100.00;102402.56;2608848;36;21530;-72
2021/11/10 01:44:45;;;;;;;22.10;11.23;;;;;;;8.52;100.00;102386.13;2622744;31;20740;-71
2021/11/10 01:47:45;;;;;;;25.70;10.93;;;;;;;8.57;100.00;102384.06;2621130;36;20041;-72
2021/11/10 01:50:34;;;;;;;25.27;11.43;;;;;;;8.49;100.00;102385.44;2634825;36;20038;-71
2021/11/10 01:53:22;;;;;;;22.45;10.57;;;;;;;8.54;100.00;102388.75;2614184;36;20574;-72
2021/11/10 01:56:19;;;;;;;30.67;11.30;;;;;;;8.58;100.00;102368.81;2598500;36;20060;-72
2021/11/10 01:58:57;;;;;;;25.10;11.30;;;;;;;8.52;100.00;102366.47;2595196;36;20065;-71
2021/11/10 02:01:46;;;;;;;22.90;11.25;;;;;;;8.47;100.00;102357.84;2617519;36;20038;-73
2021/11/10 02:04:37;;;;;;;25.08;11.10;;;;;;;8.48;100.00;102351.50;2632260;36;20117;-73
2021/11/10 02:07:33;;;;;;;26.10;11.35;;;;;;;8.50;100.00;102352.28;2597801;36;20069;-72
2021/11/10 02:13:20;;;;;;;32.85;11.85;;;;;;;8.51;100.00;102329.84;2605504;36;20062;-72
2021/11/10 02:16:16;;;;;;;;;;;;;;;;;;;;;
2021/11/10 02:19:05;;;;;;;23.05;11.20;;;;;;;8.02;100.00;102333.41;2614769;36;20042;-72
2021/11/10 02:22:05;;;;;;;25.73;12.10;;;;;;;7.92;100.00;102327.69;2595806;36;20038;-71
2021/11/10 02:25:16;;;;;;;30.50;12.48;;;;;;;7.80;100.00;102328.34;2620460;36;20057;-71
2021/11/10 02:31:35;;;;;;;31.60;12.18;;;;;;;7.79;100.00;102337.31;2594582;36;20595;-71
2021/11/10 02:34:06;;;;;;;32.67;12.77;;;;;;;7.76;100.00;102342.84;2600188;31;20030;-72
2021/11/10 02:36:44;;;;;;;33.80;13.05;;;;;;;7.79;100.00;102343.56;2604609;36;20031;-71
2021/11/10 02:39:20;;;;;;;36.20;13.02;;;;;;;7.83;100.00;102344.25;2613646;36;20051;-72
2021/11/10 02:42:35;;;;;;;31.08;14.73;;;;;;;7.90;100.00;102340.28;2613767;36;20036;-71
2021/11/10 02:45:14;;;;;;;30.75;13.82;;;;;;;8.03;100.00;102344.03;2610991;36;20053;-73
2021/11/10 02:47:49;;;;;;;31.15;12.32;;;;;;;8.07;100.00;102342.94;2613262;36;20049;-71
2021/11/10 02:53:01;;;;;;;30.83;14.48;;;;;;;8.14;100.00;102324.72;2627070;36;20536;-72
2021/11/10 02:55:47;;;;;;;31.52;14.30;;;;;;;8.19;100.00;102330.66;2598942;31;20034;-70
2021/11/10 03:01:03;;;;;;;28.98;14.43;;;;;;;8.23;100.00;102323.34;2624637;36;20042;-71
2021/11/10 03:07:08;;;;;;;29.90;14.40;;;;;;;8.27;100.00;102322.19;2619819;36;20446;-73
2021/11/10 03:09:48;;;;;;;31.00;15.43;;;;;;;8.32;100.00;102319.25;2619451;36;20145;-70
2021/11/10 03:12:29;;;;;;;34.97;15.48;;;;;;;8.31;100.00;102323.75;2600237;31;20065;-73
2021/11/10 03:15:10;;;;;;;36.97;14.93;;;;;;;8.32;100.00;102325.50;2621009;36;20054;-70
2021/11/10 03:17:43;;;;;;;36.72;15.13;;;;;;;8.33;100.00;102321.00;2597894;36;20041;-71
2021/11/10 03:20:17;;;;;;;34.40;16.13;;;;;;;8.37;100.00;102320.72;2612974;36;20468;-72
2021/11/10 03:22:53;;;;;;;39.30;16.83;;;;;;;8.36;100.00;102319.03;2598255;36;20034;-71
2021/11/10 03:27:59;;;;;;;30.25;14.57;;;;;;;8.48;100.00;102317.50;2602046;36;20030;-73
2021/11/10 03:33:32;;;;;;;34.35;14.38;;;;;;;8.45;100.00;102319.47;2601675;54;20042;-72
2021/11/10 03:36:03;;;;;;;35.55;13.52;;;;;;;8.49;100.00;102316.53;2594391;36;20038;-72
2021/11/10 03:38:56;;;;;;;31.10;13.55;;;;;;;8.45;100.00;102319.47;2613615;36;20046;-71
2021/11/10 03:41:29;;;;;;;30.83;14.48;;;;;;;8.47;100.00;102318.44;2615329;36;20656;-71
2021/11/10 03:44:44;;;;;;;36.05;14.38;;;;;;;8.44;100.00;102318.63;2612298;36;20050;-72
2021/11/10 03:47:37;;;;;;;29.15;13.25;;;;;;;8.47;100.00;102310.38;2596641;36;20034;-72
2021/11/10 03:50:31;;;;;;;25.90;11.85;;;;;;;8.41;100.00;102316.94;2596379;36;20030;-71
2021/11/10 03:53:03;;;;;;;23.60;13.18;;;;;;;8.45;100.00;102330.19;2616277;36;20472;-71
2021/11/10 03:55:41;;;;;;;28.42;11.93;;;;;;;8.46;100.00;102326.56;2595290;36;20717;-71
2021/11/10 03:58:13;;;;;;;34.70;12.88;;;;;;;8.41;100.00;102324.13;2600318;36;20034;-71
2021/11/10 04:00:57;;;;;;;29.88;12.95;;;;;;;8.39;100.00;102337.63;2606659;36;20413;-71
2021/11/10 04:03:42;;;;;;;32.20;12.93;;;;;;;8.39;100.00;102332.25;2601574;31;20034;-71
2021/11/10 04:06:22;;;;;;;28.63;12.43;;;;;;;8.42;100.00;102332.09;2636312;36;20054;-71
2021/11/10 04:09:02;;;;;;;26.95;12.05;;;;;;;8.38;100.00;102318.94;2618884;36;20122;-72
2021/11/10 04:11:58;;;;;;;25.77;11.65;;;;;;;8.42;100.00;102320.47;2595874;36;20038;-71
2021/11/10 04:17:27;;;;;;;24.77;11.85;;;;;;;8.33;100.00;102318.31;2607272;46;20561;-72
2021/11/10 04:20:26;;;;;;;24.92;11.40;;;;;;;8.31;100.00;102317.53;2598765;36;20038;-71
2021/11/10 04:23:03;;;;;;;25.63;12.10;;;;;;;8.22;100.00;102316.22;2594111;36;20031;-71
2021/11/10 04:25:41;;;;;;;28.25;12.65;;;;;;;8.19;100.00;102330.66;2624634;36;20558;-72
2021/11/10 04:31:03;;;;;;;33.05;13.43;;;;;;;8.14;100.00;102331.88;2616342;36;20166;-71
2021/11/10 04:33:42;;;;;;;33.13;13.90;;;;;;;8.09;100.00;102336.63;2603266;36;20583;-72
2021/11/10 04:36:29;;;;;;;32.70;13.68;;;;;;;8.08;100.00;102349.16;2602819;31;20482;-71
2021/11/10 04:39:00;;;;;;;27.50;12.82;;;;;;;7.99;100.00;102353.19;2605050;36;20168;-72
2021/11/10 04:41:34;;;;;;;29.73;12.93;;;;;;;7.97;100.00;102356.94;2602347;36;20408;-71
2021/11/10 04:47:06;;;;;;;30.95;13.50;;;;;;;7.83;100.00;102354.97;2598717;36;20046;-71
2021/11/10 04:49:35;;;;;;;31.92;13.77;;;;;;;7.83;100.00;102361.22;2600786;36;20038;-72
2021/11/10 04:52:10;;;;;;;30.40;13.55;;;;;;;7.84;100.00;102359.38;2602889;36;20450;-71
2021/11/10 04:54:43;;;;;;;33.60;13.02;;;;;;;7.79;100.00;102362.31;2612571;36;20041;-73
2021/11/10 05:00:26;;;;;;;36.05;14.38;;;;;;;7.72;100.00;102348.38;2602281;36;20035;-72
2021/11/10 05:03:03;;;;;;;31.55;13.57;;;;;;;7.74;100.00;102350.09;2596965;31;20037;-71
2021/11/10 05:08:11;;;;;;;36.00;13.32;;;;;;;7.65;100.00;102355.00;2604628;36;20729;-71
2021/11/10 05:10:53;;;;;;;28.00;13.95;;;;;;;7.69;100.00;102353.88;2597394;36;20073;-72
2021/11/10 05:13:26;;;;;;;33.17;13.50;;;;;;;7.65;100.00;102360.34;2612782;36;20045;-71
2021/11/10 05:19:02;;;;;;;35.22;13.73;;;;;;;7.50;100.00;102347.75;2631201;36;21091;-71
2021/11/10 05:21:51;;;;;;;35.17;13.95;;;;;;;7.45;100.00;102349.78;2601669;36;20560;-71
2021/11/10 05:24:26;;;;;;;32.20;12.63;;;;;;;7.46;100.00;102349.72;2613775;36;20045;-71
2021/11/10 05:27:06;;;;;;;27.77;12.40;;;;;;;7.48;100.00;102346.97;2617707;36;20546;-71
2021/11/10 05:29:39;;;;;;;35.88;13.57;;;;;;;7.45;100.00;102344.44;2595283;36;20586;-71
2021/11/10 05:32:14;;;;;;;30.05;12.40;;;;;;;7.44;100.00;102343.59;2620306;36;20031;-70
2021/11/10 05:34:51;;;;;;;28.90;12.85;;;;;;;7.45;100.00;102352.47;2600671;36;21190;-71
2021/11/10 05:37:31;;;;;;;25.88;13.23;;;;;;;7.43;100.00;102357.06;2601419;36;20053;-70
2021/11/10 05:40:11;;;;;;;29.30;13.52;;;;;;;7.39;100.00;102345.66;2598680;36;20062;-73
2021/11/10 05:42:46;;;;;;;25.65;13.43;;;;;;;7.42;100.00;102347.28;2617698;36;20042;-71
2021/11/10 05:45:21;;;;;;;37.00;13.75;;;;;;;7.35;100.00;102339.56;2595760;36;20041;-71
2021/11/10 05:47:49;;;;;;;26.05;12.35;;;;;;;7.41;100.00;102337.53;2620517;36;20035;-72
2021/11/10 05:50:29;;;;;;;26.80;12.40;;;;;;;7.45;100.00;102336.41;2616407;36;20038;-71
2021/11/10 05:52:59;;;;;;;;;;;;;;;7.44;100.00;102350.75;2617062;36;20761;-72
2021/11/10 05:55:51;;;;;;;28.48;12.38;;;;;;;7.41;100.00;102350.94;2598970;31;19946;-72
2021/11/10 05:58:44;;;;;;;29.38;12.25;;;;;;;7.41;100.00;102356.28;2613633;36;20042;-71
2021/11/10 06:01:14;;;;;;;28.52;12.88;;;;;;;7.36;100.00;102352.03;2594936;36;20077;-71
2021/11/10 06:03:42;;;;;;;25.30;11.98;;;;;;;7.35;100.00;102347.59;2595690;36;20640;-71
2021/11/10 06:08:44;;;;;;;25.95;12.15;;;;;;;7.42;100.00;102350.84;2601519;36;20035;-71
2021/11/10 06:11:21;;;;;;;35.92;11.27;;;;;;;7.41;100.00;102354.47;2619285;36;20463;-71
2021/11/10 06:14:02;;;;;;;27.40;11.45;;;;;;;7.40;100.00;102358.06;2596518;36;20031;-71
2021/11/10 06:16:34;;;;;;;29.17;12.18;;;;;;;7.36;100.00;102352.03;2616565;36;20089;-72
2021/11/10 06:19:08;;;;;;;30.25;12.02;;;;;;;7.41;100.00;102351.78;2616962;36;20435;-72
2021/11/10 06:21:40;;;;;;;27.33;10.90;;;;;;;7.39;100.00;102351.00;2598329;36;20061;-71
2021/11/10 06:24:17;;;;;;;31.00;11.77;;;;;;;7.33;100.00;102352.19;2622855;36;20037;-71
2021/11/10 06:26:52;;;;;;;28.48;11.40;;;;;;;7.29;100.00;102358.63;2619038;36;20574;-72
2021/11/10 06:29:24;;;;;;;25.05;10.82;;;;;;;7.33;100.00;102349.50;2598700;36;20061;-71
2021/11/10 06:31:56;;;;;;;28.15;12.88;;;;;;;7.30;100.00;102352.34;2599724;36;20034;-71
2021/11/10 06:34:36;;;;;;;26.92;11.90;;;;;;;7.30;100.00;102352.34;2599157;36;20578;-71
2021/11/10 06:37:07;;;;;;;29.00;11.70;;;;;;;7.30;100.00;102359.50;2600792;36;20061;-72
2021/11/10 06:39:40;;;;;;;27.67;10.70;;;;;;;7.29;100.00;102364.00;2621012;36;20050;-72
2021/11/10 06:42:14;;;;;;;25.85;10.63;;;;;;;7.31;100.00;102356.72;2617117;36;20030;-71
2021/11/10 06:44:46;;;;;;;27.13;10.95;;;;;;;7.35;100.00;102350.28;2598398;36;20319;-71
2021/11/10 06:47:14;;;;;;;21.33;10.07;;;;;;;7.27;100.00;102348.94;2599442;36;21348;-73
2021/11/10 06:49:55;;;;;;;26.47;10.77;;;;;;;7.28;100.00;102338.13;2600427;36;20069;-72
2021/11/10 06:52:44;;;;;;;35.13;12.02;;;;;;;7.22;100.00;102343.81;2637459;36;20032;-71
2021/11/10 06:55:36;;;;;;;28.45;12.02;;;;;;;7.23;100.00;102333.97;2622112;36;20030;-70
2021/11/10 06:58:27;;;;;;;30.13;11.63;;;;;;;7.21;100.00;102336.72;2609768;36;20045;-71
2021/11/10 07:03:36;;;;;;;31.33;11.43;;;;;;;7.34;100.00;102356.56;2609510;54;20056;-71
2021/11/10 07:06:06;;;;;;;23.97;11.37;;;;;;;7.28;100.00;102366.75;2601502;36;20568;-71
2021/11/10 07:08:37;;;;;;;22.73;10.20;;;;;;;7.26;100.00;102368.63;2602402;36;20730;-72
2021/11/10 07:11:24;;;;;;;23.10;10.20;;;;;;;7.26;100.00;102373.97;2598280;36;20061;-71
2021/11/10 07:13:55;;;;;;;24.50;10.32;;;;;;;7.35;100.00;102377.06;2599603;31;20078;-70
2021/11/10 07:16:23;;;;;;;23.10;10.77;;;;;;;7.45;100.00;102365.88;2603558;36;20031;-72
2021/11/10 07:18:51;;;;;;;23.10;11.07;;;;;;;7.31;100.00;102372.81;2603217;36;20034;-71
2021/11/10 07:21:19;;;;;;;23.35;10.07;;;;;;;7.27;100.00;102384.59;2600598;36;20653;-72
2021/11/10 07:23:48;;;;;;;21.48;10.13;;;;;;;7.25;100.00;102386.50;2595447;36;20133;-71
2021/11/10 07:26:17;;;;;;;27.35;10.85;;;;;;;7.28;100.00;102401.56;2597451;36;20050;-71
2021/11/10 07:28:45;;;;;;;26.15;10.80;;;;;;;7.34;100.00;102401.25;2594773;36;20073;-70
2021/11/10 07:31:16;;;;;;;30.83;10.85;;;;;;;7.37;100.00;102401.94;2601213;36;20035;-72
2021/11/10 07:33:44;;;;;;;24.75;10.25;;;;;;;7.37;100.00;102396.59;2603575;36;20630;-71
2021/11/10 07:36:58;;;;;;;20.80;10.68;;;;;;;7.28;100.00;102394.38;2598541;36;20158;-71
2021/11/10 07:39:51;;;;;;;21.98;10.23;;;;;;;7.27;100.00;102399.81;2596776;36;20034;-71
2021/11/10 07:42:19;;;;;;;29.75;11.07;;;;;;;7.17;100.00;102400.28;2613178;36;20439;-72
2021/11/10 07:44:51;;;;;;;28.88;11.27;;;;;;;7.32;100.00;102398.66;2608758;36;20149;-71
2021/11/10 07:47:24;;;;;;;21.52;10.88;;;;;;;7.18;100.00;102385.97;2607677;36;20555;-71
2021/11/10 07:49:52;;;;;;;21.08;10.88;;;;;;;7.26;100.00;102373.97;2610149;36;20038;-72
2021/11/10 07:52:21;;;;;;;20.70;10.13;;;;;;;7.36;100.00;102362.75;2611359;36;20038;-71
2021/11/10 07:54:49;;;;;;;24.23;10.90;;;;;;;7.37;100.00;102353.72;2610790;36;20494;-71
2021/11/10 07:57:17;;;;;;;27.25;10.52;;;;;;;7.50;100.00;102345.09;2610986;36;20141;-72
2021/11/10 07:59:46;;;;;;;22.13;10.18;;;;;;;7.43;100.00;102335.63;2610489;36;20170;-72
2021/11/10 08:02:14;;;;;;;23.80;10.40;;;;;;;7.33;100.00;102330.75;2611340;36;20038;-71
2021/11/10 08:04:45;;;;;;;24.35;10.57;;;;;;;7.34;100.00;102337.81;2611374;31;20052;-72
2021/11/10 08:07:13;;;;;;;21.92;11.27;;;;;;;7.34;100.00;102353.88;2611889;36;20034;-71
2021/11/10 08:09:41;;;;;;;20.23;10.52;;;;;;;7.28;100.00;102362.25;2610234;36;20146;-72
2021/11/10 08:12:10;;;;;;;23.88;10.48;;;;;;;7.25;100.00;102375.78;2611216;36;20034;-71
2021/11/10 08:14:38;;;;;;;20.40;10.95;;;;;;;7.27;100.00;102391.78;2610420;36;20061;-71
2021/11/10 08:17:09;;;;;;;19.48;10.38;;;;;;;7.33;100.00;102392.34;2611209;36;20626;-71
2021/11/10 08:19:38;;;;;;;22.73;10.07;;;;;;;7.32;100.00;102395.97;2610791;36;20034;-72
2021/11/10 08:22:14;;;;;;;23.88;11.23;;;;;;;7.31;100.00;102404.94;2611547;36;20149;-72
2021/11/10 08:24:43;;;;;;;23.02;11.60;;;;;;;7.33;100.00;102427.19;2611736;36;20054;-71
2021/11/10 08:27:11;;;;;;;23.52;10.98;;;;;;;7.36;100.00;102432.38;2611741;36;20031;-72
2021/11/10 08:29:39;;;;;;;22.40;11.02;;;;;;;7.27;100.00;102427.47;2611718;36;20064;-73
2021/11/10 08:32:09;;;;;;;23.27;11.60;;;;;;;7.35;100.00;102425.28;2611592;36;20464;-72
2021/11/10 08:34:37;;;;;;;;;;;;;;;7.26;100.00;102420.38;2611643;36;20069;-72
2021/11/10 08:37:05;;;;;;;21.15;11.20;;;;;;;7.41;100.00;102412.53;2611126;36;20056;-71
2021/11/10 08:39:36;;;;;;;27.05;10.90;;;;;;;7.45;100.00;102401.59;2611796;36;20133;-72
2021/11/10 08:42:08;;;;;;;23.52;11.70;;;;;;;7.37;100.00;102418.03;2627449;36;20034;-71
2021/11/10 08:44:40;;;;;;;28.85;11.80;;;;;;;7.33;100.00;102418.25;2611039;36;20056;-72
2021/11/10 08:47:09;;;;;;;29.42;11.48;;;;;;;7.34;100.00;102398.56;2611779;36;20156;-73
2021/11/10 08:49:37;;;;;;;24.77;11.63;;;;;;;7.41;100.00;102393.78;2611597;36;20125;-71
2021/11/10 08:52:06;;;;;;;24.45;11.32;;;;;;;7.45;100.00;102393.56;2611862;31;20041;-71
2021/11/10 08:54:37;;;;;;;23.08;10.95;;;;;;;7.41;100.00;102404.50;2610588;36;20061;-72
2021/11/10 08:57:06;;;;;;;24.27;12.10;;;;;;;7.36;100.00;102392.19;2611798;36;20149;-71
2021/11/10 08:59:34;;;;;;;32.80;12.82;;;;;;;7.44;100.00;102383.78;2611096;36;20154;-71
2021/11/10 09:02:02;;;;;;;25.70;13.55;;;;;;;7.51;100.00;102395.06;2611259;36;20615;-73
2021/11/10 09:04:30;;;;;;;32.45;13.63;;;;;;;7.42;100.00;102396.38;2611244;36;20030;-72
2021/11/10 09:06:59;;;;;;;28.48;14.00;;;;;;;7.41;100.00;102391.09;2611256;36;20042;-72
2021/11/10 09:09:27;;;;;;;28.60;14.68;;;;;;;7.63;100.00;102389.06;2610561;36;20562;-72
2021/11/10 09:11:58;;;;;;;39.88;14.50;;;;;;;7.61;100.00;102388.28;2610892;36;20129;-71
2021/11/10 09:14:27;;;;;;;35.63;15.15;;;;;;;7.49;100.00;102386.22;2611814;36;20037;-72
2021/11/10 09:16:55;;;;;;;40.50;17.15;;;;;;;7.46;100.00;102389.91;2611333;31;21012;-72
2021/11/10 09:19:24;;;;;;;34.40;15.53;;;;;;;7.43;100.00;102391.88;2610720;31;20045;-72
2021/11/10 09:21:52;;;;;;;34.05;14.43;;;;;;;7.58;100.00;102387.56;2610998;36;20069;-71
2021/11/10 09:24:20;;;;;;;37.22;16.92;;;;;;;7.51;100.00;102384.34;2609708;31;20519;-71
2021/11/10 09:26:51;;;;;;;34.53;15.20;;;;;;;7.65;100.00;102397.00;2610454;36;20200;-72
2021/11/10 09:29:22;;;;;;;31.48;14.93;;;;;;;7.69;100.00;102391.41;2611174;36;20065;-71
2021/11/10 09:31:51;;;;;;;31.52;14.38;;;;;;;7.67;100.00;102395.09;2612097;31;20617;-72
2021/11/10 09:34:20;;;;;;;29.92;15.85;;;;;;;7.69;100.00;102399.44;2612146;36;20415;-72
2021/11/10 09:36:51;;;;;;;33.85;15.13;;;;;;;7.62;100.00;102400.72;2611892;36;20030;-71
2021/11/10 09:39:21;;;;;;;28.63;14.45;;;;;;;7.68;100.00;102410.25;2611407;36;20030;-71
2021/11/10 09:41:51;;;;;;;38.45;15.95;;;;;;;7.62;100.00;102410.56;2611628;36;20066;-71
2021/11/10 09:44:23;;;;;;;27.58;14.38;;;;;;;7.70;100.00;102414.59;2611540;36;20057;-72
2021/11/10 09:46:55;;;;;;;30.90;14.57;;;;;;;7.76;100.00;102402.69;2612185;36;20663;-71
2021/11/10 09:49:24;;;;;;;33.53;13.45;;;;;;;7.78;100.00;102399.94;2611707;36;20065;-72
2021/11/10 09:51:52;;;;;;;28.38;13.90;;;;;;;7.94;100.00;102406.22;2612225;36;20535;-72
2021/11/10 09:54:21;;;;;;;27.90;14.23;;;;;;;7.84;100.00;102404.97;2611039;36;20060;-71
2021/11/10 09:56:51;;;;;;;32.70;14.35;;;;;;;7.93;100.00;102400.94;2612081;36;20091;-71
2021/11/10 09:59:30;;;;;;;29.65;13.88;;;;;;;7.98;100.00;102391.69;2611147;36;20052;-72
2021/11/10 10:01:59;;;;;;;33.35;14.07;;;;;;;8.05;100.00;102390.44;2611917;31;20134;-70
2021/11/10 10:04:28;;;;;;;;;;;;;;;8.18;100.00;102387.06;2611367;31;20149;-72
2021/11/10 10:13:41;;;;;;;30.20;14.45;;;;;;;8.31;100.00;102390.81;2609709;36;20307;-71
2021/11/10 10:16:13;;;;;;;31.42;12.90;;;;;;;8.44;100.00;102390.16;2610175;36;20034;-71
2021/11/10 10:19:09;;;;;;;29.65;13.48;;;;;;;8.40;100.00;102395.69;2609758;36;20030;-72
2021/11/10 10:21:42;;;;;;;33.40;14.23;;;;;;;8.50;100.00;102403.28;2627954;36;20164;-71
2021/11/10 10:26:59;;;;;;;29.17;13.75;;;;;;;8.66;100.00;102387.19;2609432;36;20041;-71
2021/11/10 10:29:39;;;;;;;31.20;14.68;;;;;;;8.65;100.00;102391.69;2610640;36;20030;-71
2021/11/10 10:34:58;;;;;;;27.17;14.45;;;;;;;8.75;100.00;102379.47;2627844;36;20042;-72
2021/11/10 10:37:56;;;;;;;30.90;14.35;;;;;;;8.77;100.00;102372.22;2611899;36;20558;-71
2021/11/10 10:52:18;;;;;;;30.27;14.85;;;;;;;8.89;100.00;102383.19;2611180;36;20070;-72
2021/11/10 10:54:48;;;;;;;33.50;16.58;;;;;;;8.89;100.00;102377.81;2608973;36;20035;-73
2021/11/10 10:57:17;;;;;;;32.22;15.30;;;;;;;8.89;100.00;102372.44;2610203;36;20148;-73
2021/11/10 10:59:45;;;;;;;;;;;;;;;9.19;100.00;102369.81;2611121;36;20030;-72
2021/11/10 11:02:15;;;;;;;33.83;15.02;;;;;;;9.22;100.00;102384.91;2611857;36;19978;-73
2021/11/10 11:04:47;;;;;;;;;;;;;;;9.27;100.00;102390.84;2611856;36;20049;-71
2021/11/10 11:07:16;;;;;;;35.10;14.90;;;;;;;9.20;100.00;102386.78;2612322;36;20358;-71
2021/11/10 11:12:29;;;;;;;38.95;16.60;;;;;;;9.33;100.00;102374.34;2611152;36;20568;-71
2021/11/10 11:17:57;;;;;;;39.60;16.80;;;;;;;9.43;100.00;102388.97;2611369;36;20041;-71
2021/11/10 11:20:32;;;;;;;38.67;16.30;;;;;;;9.35;100.00;102393.97;2610690;36;20034;-72
2021/11/10 11:23:03;;;;;;;34.97;15.30;;;;;;;9.22;100.00;102395.63;2611735;36;20253;-72
2021/11/10 11:25:33;;;;;;;35.67;16.10;;;;;;;9.32;100.00;102391.47;2610962;36;20126;-71
2021/11/10 11:28:13;;;;;;;37.33;15.95;;;;;;;9.21;100.00;102388.53;2611056;36;20121;-71
2021/11/10 11:30:43;;;;;;;34.05;16.95;;;;;;;9.26;100.00;102381.03;2611917;31;20073;-71
2021/11/10 11:33:43;;;;;;;36.65;16.00;;;;;;;9.22;100.00;102384.91;2630859;36;20418;-71
2021/11/10 11:36:22;;;;;;;37.70;17.13;;;;;;;9.23;100.00;102389.28;2628095;31;20034;-72
2021/11/10 11:39:05;;;;;;;38.22;15.98;;;;;;;9.08;100.00;102378.50;2609592;36;20042;-70
2021/11/10 11:41:33;;;;;;;45.83;18.65;;;;;;;9.17;100.00;102378.91;2611018;36;20642;-72
2021/11/10 11:44:04;;;;;;;36.45;17.80;;;;;;;9.17;100.00;102376.22;2628581;36;20085;-70
2021/11/10 11:46:47;;;;;;;31.58;17.73;;;;;;;9.17;100.00;102378.91;2610756;36;20129;-71
2021/11/10 11:49:17;;;;;;;43.05;17.75;;;;;;;9.14;100.00;102377.25;2611450;36;20034;-71
2021/11/10 11:52:06;;;;;;;38.00;17.88;;;;;;;9.21;100.00;102377.78;2627405;36;20038;-72
2021/11/10 11:54:58;;;;;;;;;;;;;;;9.42;100.00;102376.53;2629418;36;20531;-72
2021/11/10 11:57:36;;;;;;;45.70;18.30;;;;;;;9.51;100.00;102368.84;2611363;36;19950;-71
2021/11/10 12:00:12;;;;;;;44.03;19.27;;;;;;;9.44;100.00;102366.53;2610671;36;20657;-72
2021/11/10 12:06:17;;;;;;;36.75;18.40;;;;;;;9.26;100.00;102356.88;2627879;36;20454;-72
2021/11/10 12:08:53;;;;;;;41.53;18.05;;;;;;;9.18;100.00;102353.78;2609971;36;20504;-71
2021/11/10 12:21:20;;;;;;;44.58;18.88;;;;;;;9.35;100.00;102339.34;2610331;36;20034;-71
2021/11/10 12:24:16;;;;;;;39.75;18.40;;;;;;;9.34;100.00;102332.25;2628741;36;20034;-71
2021/11/10 12:34:12;;;;;;;42.88;17.88;;;;;;;9.46;100.00;102342.25;2610968;36;20030;-72
2021/11/10 12:36:53;;;;;;;36.78;16.55;;;;;;;9.52;100.00;102341.03;2629068;36;20030;-72
2021/11/10 12:39:48;;;;;;;42.25;18.42;;;;;;;9.43;100.00;102335.22;2610647;36;20130;-72
2021/11/10 12:43:09;;;;;;;44.50;18.08;;;;;;;9.62;100.00;102340.38;2628845;36;20030;-72
2021/11/10 12:45:46;;;;;;;44.20;18.88;;;;;;;9.62;100.00;102345.75;2629060;36;20463;-72
2021/11/10 12:48:56;;;;;;;39.63;18.52;;;;;;;9.53;100.00;102348.13;2629144;36;20145;-72
2021/11/10 12:58:02;;;;;;;37.45;17.83;;;;;;;9.45;100.00;102352.16;2628580;36;20627;-71
2021/11/10 13:01:07;;;;;;;39.60;16.98;;;;;;;9.38;100.00;102357.97;2628629;31;20034;-72
2021/11/10 13:03:54;;;;;;;35.78;16.50;;;;;;;9.34;100.00;102357.28;2629977;36;20149;-72
2021/11/10 13:06:38;;;;;;;42.20;17.40;;;;;;;9.29;100.00;102343.28;2628525;36;20038;-71
2021/11/10 13:09:25;;;;;;;40.88;18.05;;;;;;;9.27;100.00;102339.81;2611545;36;20038;-71
2021/11/10 13:15:11;;;;;;;;;;;;;;;;;;;;;
2021/11/10 13:33:19;;;;;;;32.28;14.35;;;;;;;9.55;100.00;102305.91;2647026;36;20031;-71
2021/11/10 13:42:06;;;;;;;29.70;14.50;;;;;;;9.38;100.00;102285.41;2610177;36;20054;-71
2021/11/10 13:45:05;;;;;;;36.45;15.57;;;;;;;9.40;100.00;102294.25;2628632;36;20121;-72
2021/11/10 13:48:18;;;;;;;31.23;14.50;;;;;;;9.54;100.00;102288.03;2628378;36;20360;-72
2021/11/10 14:00:03;;;;;;;27.48;13.80;;;;;;;9.39;100.00;102296.09;2629060;36;20121;-71
2021/11/10 14:06:36;;;;;;;;;;;;;;;;;;;;;
2021/11/10 14:09:37;;;;;;;23.95;13.65;;;;;;;9.39;100.00;102305.94;2651478;31;20688;-71
2021/11/10 14:19:03;;;;;;;;;;;;;;;;;;;;;
2021/11/10 14:25:43;;;;;;;25.77;13.75;;;;;;;9.28;100.00;102306.63;2646416;36;20031;-71
2021/11/10 14:28:42;;;;;;;30.40;15.38;;;;;;;9.23;100.00;102314.94;2646661;36;20041;-71
2021/11/10 14:34:57;;;;;;;28.35;13.50;;;;;;;9.21;100.00;102319.53;2646947;36;20042;-70
2021/11/10 14:37:37;;;;;;;25.27;14.43;;;;;;;9.14;100.00;102322.69;2626451;36;20038;-71
2021/11/10 14:44:19;;;;;;;;;;;;;;;;;;;;;
2021/11/10 14:46:48;;;;;;;29.42;14.70;;;;;;;9.24;100.00;102318.50;2646744;36;20834;-71
2021/11/10 14:59:51;;;;;;;;;;;;;;;;;;;;;
2021/11/10 15:02:53;;;;;;;35.20;15.63;;;;;;;9.18;100.00;102330.47;2645160;36;20137;-71
2021/11/10 15:06:24;;;;;;;;;;;;;;;;;;;;;
2021/11/10 15:09:24;;;;;;;30.77;14.85;;;;;;;9.22;100.00;102341.91;2644924;36;20759;-71
2021/11/10 15:13:00;;;;;;;;;;;;;;;;;;;;;
2021/11/10 15:18:43;;;;;;;23.65;14.05;;;;;;;9.27;100.00;102346.03;2625065;36;20069;-71
2021/11/10 15:31:15;;;;;;;29.33;14.15;;;;;;;9.12;100.00;102336.19;2631935;36;20038;-71
2021/11/10 15:33:59;;;;;;;25.38;14.50;;;;;;;9.19;100.00;102342.09;2615505;36;20034;-72
2021/11/10 15:36:27;;;;;;;28.23;14.02;;;;;;;9.00;100.00;102345.84;2632791;36;20125;-72
2021/11/10 15:38:55;;;;;;;30.77;14.03;;;;;;;8.98;100.00;102342.41;2614706;36;20030;-71
2021/11/10 15:45:05;;;;;;;;;;;;;;;;;;;;;
2021/11/10 16:01:00;;;;;;;30.60;15.20;;;;;;;8.62;100.00;102335.50;2650326;36;20034;-70
2021/11/10 16:03:37;;;;;;;32.10;14.73;;;;;;;8.63;100.00;102334.53;2613513;36;20034;-71
2021/11/10 16:06:25;;;;;;;34.47;15.57;;;;;;;8.54;100.00;102340.44;2632031;36;20109;-70
2021/11/10 16:15:52;;;;;;;33.97;16.60;;;;;;;8.53;100.00;102344.06;2629850;36;20101;-71